createdAt,value
2022-10-04T00:00:21.167Z,100205.31
2022-10-04T00:02:50.309Z,100213.69
2022-10-04T00:05:16.684Z,100208.09
2022-10-04T00:07:45.786Z,100212.88
2022-10-04T00:10:12.103Z,100212.44
2022-10-04T00:12:38.418Z,100197.72
2022-10-04T00:15:04.761Z,100196.94
2022-10-04T00:17:33.888Z,100196.09
2022-10-04T00:20:00.226Z,100188.53
2022-10-04T00:22:26.554Z,100190.50
2022-10-04T00:24:52.835Z,100185.75
2022-10-04T00:27:19.266Z,100187.69
2022-10-04T00:29:48.366Z,100182.53
2022-10-04T00:32:14.676Z,100181.31
2022-10-04T00:34:40.988Z,100174.97
2022-10-04T00:37:10.087Z,100170.16
2022-10-04T00:39:39.223Z,100175.75
2022-10-04T00:42:05.516Z,100172.94
2022-10-04T00:44:34.628Z,100174.19
2022-10-04T00:47:00.928Z,100182.13
2022-10-04T00:49:30.053Z,100169.75
2022-10-04T00:51:56.361Z,100177.31
2022-10-04T00:54:22.662Z,100174.53
2022-10-04T00:56:51.762Z,100182.50
2022-10-04T00:59:18.293Z,100185.28
2022-10-04T01:01:47.388Z,100172.13
2022-10-04T01:04:13.732Z,100176.91
2022-10-04T01:06:40.056Z,100174.53
2022-10-04T01:09:06.345Z,100173.75
2022-10-04T01:11:32.650Z,100177.75
2022-10-04T01:13:58.987Z,100169.75
2022-10-04T01:16:25.371Z,100164.94
2022-10-04T01:18:51.700Z,100166.91
2022-10-04T01:21:17.967Z,100162.09
2022-10-04T01:23:44.280Z,100165.41
2022-10-04T01:26:10.735Z,100165.94
2022-10-04T01:28:39.854Z,100171.50
2022-10-04T01:31:06.228Z,100163.56
2022-10-04T01:33:32.558Z,100160.00
2022-10-04T01:35:58.895Z,100159.59
2022-10-04T01:38:25.238Z,100166.41
2022-10-04T01:40:51.549Z,100165.94
2022-10-04T01:43:17.913Z,100168.38
2022-10-04T01:45:44.239Z,100172.44
2022-10-04T01:48:10.565Z,100183.13
2022-10-04T01:50:36.864Z,100182.69
2022-10-04T01:53:03.146Z,100180.28
2022-10-04T01:55:29.482Z,100185.31
2022-10-04T01:57:55.782Z,100173.91
2022-10-04T02:00:22.086Z,100183.59
2022-10-04T02:02:48.412Z,100179.59
2022-10-04T02:05:14.757Z,100187.38
2022-10-04T02:07:41.123Z,100187.47
2022-10-04T02:10:07.468Z,100187.88
2022-10-04T02:12:33.800Z,100184.75
2022-10-04T02:15:00.128Z,100201.88
2022-10-04T02:17:26.448Z,100182.38
2022-10-04T02:19:52.860Z,100183.13
2022-10-04T02:22:19.198Z,100188.31
2022-10-04T02:24:45.526Z,100187.53
2022-10-04T02:27:11.869Z,100182.78
2022-10-04T02:29:38.176Z,100188.78
2022-10-04T02:32:04.528Z,100199.56
2022-10-04T02:34:30.837Z,100194.34
2022-10-04T02:36:57.137Z,100184.00
2022-10-04T02:39:23.437Z,100187.56
2022-10-04T02:41:49.742Z,100196.34
2022-10-04T02:44:16.076Z,100197.53
2022-10-04T02:46:42.503Z,100195.09
2022-10-04T02:49:08.873Z,100195.16
2022-10-04T02:51:35.178Z,100199.56
2022-10-04T02:54:03.655Z,100198.78
2022-10-04T02:56:31.307Z,100197.59
2022-10-04T02:58:57.745Z,100198.31
2022-10-04T03:01:24.133Z,100201.09
2022-10-04T03:03:50.518Z,100186.38
2022-10-04T03:06:16.871Z,100196.31
2022-10-04T03:08:43.386Z,100192.38
2022-10-04T03:11:10.645Z,100192.44
2022-10-04T03:13:36.978Z,100198.41
2022-10-04T03:16:03.339Z,100196.34
2022-10-04T03:18:29.744Z,100194.34
2022-10-04T03:20:56.070Z,100196.91
2022-10-04T03:23:22.354Z,100194.78
2022-10-04T03:25:48.651Z,100195.56
2022-10-04T03:28:15.059Z,100195.84
2022-10-04T03:30:44.221Z,100200.19
2022-10-04T03:33:10.536Z,100208.06
2022-10-04T03:35:36.840Z,100196.50
2022-10-04T03:38:03.148Z,100205.56
2022-10-04T03:40:29.523Z,100207.94
2022-10-04T03:42:55.849Z,100213.06
2022-10-04T03:45:22.169Z,100209.00
2022-10-04T03:47:48.475Z,100214.66
2022-10-04T03:50:14.805Z,100210.72
2022-10-04T03:52:41.138Z,100207.25
2022-10-04T03:55:07.481Z,100206.09
2022-10-04T03:57:33.842Z,100207.34
2022-10-04T04:00:00.160Z,100213.72
2022-10-04T04:02:26.612Z,100230.50
2022-10-04T04:04:52.981Z,100223.25
2022-10-04T04:07:19.288Z,100223.25
2022-10-04T04:09:45.641Z,100226.88
2022-10-04T04:12:11.960Z,100218.16
2022-10-04T04:14:38.268Z,100221.00
2022-10-04T04:17:04.613Z,100218.63
2022-10-04T04:19:30.926Z,100223.84
2022-10-04T04:21:57.256Z,100228.53
2022-10-04T04:24:23.609Z,100227.75
2022-10-04T04:26:49.891Z,100234.88
2022-10-04T04:29:16.208Z,100237.38
2022-10-04T04:31:42.739Z,100245.38
2022-10-04T04:34:09.297Z,100246.88
2022-10-04T04:36:35.574Z,100244.56
2022-10-04T04:39:01.901Z,100249.41
2022-10-04T04:41:28.220Z,100248.16
2022-10-04T04:43:54.509Z,100237.66
2022-10-04T04:46:27.595Z,100240.44
2022-10-04T04:48:54.347Z,100241.34
2022-10-04T04:51:20.693Z,100250.84
2022-10-04T04:53:46.984Z,100235.34
2022-10-04T04:56:17.409Z,100241.81
2022-10-04T04:58:44.371Z,100249.03
2022-10-04T05:01:13.511Z,100251.38
2022-10-04T05:03:39.913Z,100260.59
2022-10-04T05:06:06.240Z,100266.53
2022-10-04T05:08:35.970Z,100268.97
2022-10-04T05:11:05.201Z,100276.94
2022-10-04T05:13:31.538Z,100268.91
2022-10-04T05:15:57.865Z,100278.88
2022-10-04T05:18:24.225Z,100277.69
2022-10-04T05:20:50.530Z,100279.69
2022-10-04T05:23:17.728Z,100285.66
2022-10-04T05:25:44.047Z,100286.78
2022-10-04T05:28:10.453Z,100295.25
2022-10-04T05:30:36.802Z,100299.22
2022-10-04T05:33:03.107Z,100302.41
2022-10-04T05:35:29.428Z,100297.16
2022-10-04T05:37:55.770Z,100303.53
2022-10-04T05:40:22.121Z,100319.47
2022-10-04T05:42:48.498Z,100315.09
2022-10-04T05:45:14.827Z,100309.03
2022-10-04T05:47:41.126Z,100325.81
2022-10-04T05:50:07.497Z,100325.41
2022-10-04T05:52:33.829Z,100326.94
2022-10-04T05:55:01.034Z,100331.41
2022-10-04T05:57:27.357Z,100326.19
2022-10-04T05:59:53.709Z,100334.19
2022-10-04T06:02:20.139Z,100334.50
2022-10-04T06:04:46.521Z,100332.88
2022-10-04T06:07:13.726Z,100336.81
2022-10-04T06:09:40.096Z,100342.41
2022-10-04T06:12:06.445Z,100341.63
2022-10-04T06:14:32.791Z,100337.69
2022-10-04T06:16:59.203Z,100345.66
2022-10-04T06:19:25.547Z,100342.09
2022-10-04T06:21:51.881Z,100348.91
2022-10-04T06:24:19.077Z,100351.69
2022-10-04T06:26:45.416Z,100354.53
2022-10-04T06:29:11.759Z,100355.75
2022-10-04T06:31:38.058Z,100362.84
2022-10-04T06:34:04.428Z,100372.81
2022-10-04T06:36:30.746Z,100365.28
2022-10-04T06:38:58.386Z,100371.22
2022-10-04T06:41:27.198Z,100371.22
2022-10-04T06:43:53.553Z,100381.75
2022-10-04T06:46:20.828Z,100382.72
2022-10-04T06:48:47.230Z,100381.16
2022-10-04T06:51:13.585Z,100388.75
2022-10-04T06:53:39.903Z,100398.00
2022-10-04T06:56:06.272Z,100390.06
2022-10-04T06:58:32.598Z,100398.53
2022-10-04T07:00:58.969Z,100399.44
2022-10-04T07:03:25.335Z,100395.09
2022-10-04T07:05:51.645Z,100402.66
2022-10-04T07:08:17.977Z,100404.31
2022-10-04T07:10:44.442Z,100406.34
2022-10-04T07:13:10.804Z,100405.94
2022-10-04T07:15:37.201Z,100420.22
2022-10-04T07:18:03.566Z,100424.63
2022-10-04T07:20:29.899Z,100422.25
2022-10-04T07:22:56.240Z,100425.47
2022-10-04T07:25:22.549Z,100431.81
2022-10-04T07:27:48.922Z,100431.81
2022-10-04T07:30:16.114Z,100430.25
2022-10-04T07:32:42.424Z,100440.19
2022-10-04T07:35:08.782Z,100441.44
2022-10-04T07:37:35.091Z,100435.44
2022-10-04T07:40:01.402Z,100447.03
2022-10-04T07:42:27.732Z,100445.44
2022-10-04T07:44:54.071Z,100450.59
2022-10-04T07:47:20.725Z,100455.38
2022-10-04T07:49:47.038Z,100454.91
2022-10-04T07:52:13.643Z,100468.44
2022-10-04T07:54:39.963Z,100467.19
2022-10-04T07:57:06.312Z,100463.25
2022-10-04T07:59:32.711Z,100470.00
2022-10-04T08:01:59.051Z,100477.19
2022-10-04T08:04:25.473Z,100470.84
2022-10-04T08:06:51.989Z,100470.84
2022-10-04T08:09:18.646Z,100473.69
2022-10-04T08:11:45.230Z,100468.94
2022-10-04T08:14:11.860Z,100474.91
2022-10-04T08:16:38.520Z,100468.59
2022-10-04T08:19:05.133Z,100474.53
2022-10-04T08:21:31.698Z,100474.94
2022-10-04T08:23:58.048Z,100483.66
2022-10-04T08:26:24.361Z,100476.94
2022-10-04T08:28:50.733Z,100474.97
2022-10-04T08:31:17.100Z,100476.94
2022-10-04T08:33:43.502Z,100473.78
2022-10-04T08:36:09.839Z,100469.41
2022-10-04T08:38:36.181Z,100468.19
2022-10-04T08:41:03.488Z,100484.44
2022-10-04T08:43:30.195Z,100479.63
2022-10-04T08:45:56.676Z,100494.69
2022-10-04T08:48:23.181Z,100493.06
2022-10-04T08:50:49.632Z,100499.41
2022-10-04T08:53:17.025Z,100495.41
2022-10-04T08:55:44.407Z,100499.78
2022-10-04T08:58:10.799Z,100502.16
2022-10-04T09:00:37.226Z,100510.91
2022-10-04T09:03:03.709Z,100521.22
2022-10-04T09:05:31.084Z,100512.03
2022-10-04T09:07:58.330Z,100511.25
2022-10-04T09:10:25.553Z,100519.19
2022-10-04T09:12:51.949Z,100516.41
2022-10-04T09:15:21.175Z,100516.00
2022-10-04T09:17:47.646Z,100525.16
2022-10-04T09:20:37.302Z,100529.13
2022-10-04T09:23:06.417Z,100526.34
2022-10-04T09:25:33.137Z,100529.91
2022-10-04T09:27:59.554Z,100530.28
2022-10-04T09:30:28.737Z,100539.44
2022-10-04T09:32:55.960Z,100535.84
2022-10-04T09:35:22.501Z,100541.03
2022-10-04T09:37:48.851Z,100537.47
2022-10-04T09:40:16.044Z,100550.97
2022-10-04T09:42:42.392Z,100550.97
2022-10-04T09:45:09.754Z,100552.16
2022-10-04T09:47:36.117Z,100550.97
2022-10-04T09:50:02.453Z,100562.91
2022-10-04T09:52:28.763Z,100566.06
2022-10-04T09:54:55.139Z,100558.94
2022-10-04T09:57:21.474Z,100555.34
2022-10-04T09:59:47.799Z,100550.56
2022-10-04T10:02:14.120Z,100562.50
2022-10-04T10:04:40.466Z,100558.47
2022-10-04T10:07:06.825Z,100562.44
2022-10-04T10:09:33.166Z,100564.38
2022-10-04T10:11:59.506Z,100568.38
2022-10-04T10:14:25.835Z,100561.56
2022-10-04T10:16:52.172Z,100566.72
2022-10-04T10:19:18.504Z,100565.09
2022-10-04T10:21:44.877Z,100567.88
2022-10-04T10:24:11.242Z,100572.63
2022-10-04T10:26:37.585Z,100573.03
2022-10-04T10:29:03.935Z,100575.06
2022-10-04T10:31:30.323Z,100581.78
2022-10-04T10:33:56.739Z,100573.44
2022-10-04T10:36:23.098Z,100575.44
2022-10-04T10:38:49.431Z,100583.00
2022-10-04T10:41:15.756Z,100584.97
2022-10-04T10:43:42.043Z,100580.63
2022-10-04T10:46:08.429Z,100583.78
2022-10-04T10:48:34.775Z,100571.03
2022-10-04T10:51:01.087Z,100577.44
2022-10-04T10:53:27.392Z,100583.00
2022-10-04T10:55:53.721Z,100596.63
2022-10-04T10:58:20.905Z,100599.09
2022-10-04T11:00:47.267Z,100599.19
2022-10-04T11:03:15.776Z,100597.97
2022-10-04T11:05:43.607Z,100615.50
2022-10-04T11:08:09.963Z,100613.59
2022-10-04T11:10:36.309Z,100613.63
2022-10-04T11:13:02.667Z,100612.88
2022-10-04T11:15:29.072Z,100607.66
2022-10-04T11:17:55.407Z,100635.50
2022-10-04T11:20:21.736Z,100632.78
2022-10-04T11:22:48.104Z,100622.44
2022-10-04T11:25:14.443Z,100622.03
2022-10-04T11:27:40.757Z,100624.78
2022-10-04T11:30:07.097Z,100634.31
2022-10-04T11:32:33.451Z,100639.88
2022-10-04T11:34:59.794Z,100639.53
2022-10-04T11:37:26.149Z,100644.25
2022-10-04T11:39:52.550Z,100640.63
2022-10-04T11:42:18.863Z,100649.88
2022-10-04T11:44:45.170Z,100646.72
2022-10-04T11:47:12.463Z,100659.41
2022-10-04T11:49:38.838Z,100647.88
2022-10-04T11:52:05.195Z,100650.25
2022-10-04T11:54:31.509Z,100647.03
2022-10-04T11:56:57.825Z,100650.22
2022-10-04T11:59:24.151Z,100650.22
2022-10-04T12:01:50.527Z,100646.28
2022-10-04T12:04:16.899Z,100653.44
2022-10-04T12:06:43.555Z,100653.00
2022-10-04T12:09:10.105Z,100665.38
2022-10-04T12:11:36.407Z,100662.19
2022-10-04T12:14:02.720Z,100660.56
2022-10-04T12:16:29.042Z,100655.81
2022-10-04T12:18:55.363Z,100671.72
2022-10-04T12:21:21.680Z,100666.94
2022-10-04T12:23:47.996Z,100672.53
2022-10-04T12:26:19.016Z,100670.94
2022-10-04T12:28:45.698Z,100672.94
2022-10-04T12:31:12.112Z,100674.53
2022-10-04T12:33:38.493Z,100666.19
2022-10-04T12:36:04.834Z,100673.34
2022-10-04T12:38:31.126Z,100679.28
2022-10-04T12:40:57.447Z,100678.47
2022-10-04T12:43:23.769Z,100684.84
2022-10-04T12:45:50.243Z,100692.78
2022-10-04T12:48:16.699Z,100697.19
2022-10-04T12:50:43.021Z,100699.19
2022-10-04T12:53:09.372Z,100696.00
2022-10-04T12:55:35.692Z,100699.59
2022-10-04T12:58:02.033Z,100693.63
2022-10-04T13:00:28.344Z,100699.19
2022-10-04T13:02:54.701Z,100705.13
2022-10-04T13:05:20.998Z,100705.13
2022-10-04T13:07:47.319Z,100703.94
2022-10-04T13:10:24.101Z,100709.91
2022-10-04T13:12:51.495Z,100706.31
2022-10-04T13:15:17.829Z,100702.38
2022-10-04T13:17:44.158Z,100710.31
2022-10-04T13:20:10.604Z,100707.94
2022-10-04T13:22:57.010Z,100706.72
2022-10-04T13:25:23.367Z,100711.88
2022-10-04T13:27:49.736Z,100711.88
2022-10-04T13:30:16.077Z,100717.06
2022-10-04T13:32:42.403Z,100716.66
2022-10-04T13:35:08.748Z,100717.84
2022-10-04T13:37:35.117Z,100719.84
2022-10-04T13:40:01.435Z,100724.22
2022-10-04T13:42:27.779Z,100727.00
2022-10-04T13:44:54.120Z,100732.56
2022-10-04T13:47:20.597Z,100746.09
2022-10-04T13:49:46.917Z,100729.38
2022-10-04T13:52:13.300Z,100729.78
2022-10-04T13:54:39.640Z,100730.97
2022-10-04T13:57:05.999Z,100740.13
2022-10-04T13:59:35.158Z,100741.31
2022-10-04T14:02:01.783Z,100740.91
2022-10-04T14:04:28.198Z,100736.53
2022-10-04T14:06:55.417Z,100736.13
2022-10-04T14:09:21.864Z,100741.28
2022-10-04T14:11:48.568Z,100741.66
2022-10-04T14:14:18.027Z,100745.28
2022-10-04T14:16:47.202Z,100740.88
2022-10-04T14:19:13.610Z,100746.44
2022-10-04T14:21:39.962Z,100752.41
2022-10-04T14:24:07.173Z,100755.19
2022-10-04T14:26:34.445Z,100762.75
2022-10-04T14:29:00.779Z,100756.78
2022-10-04T14:31:27.225Z,100773.09
2022-10-04T14:33:53.638Z,100767.91
2022-10-04T14:36:19.966Z,100779.06
2022-10-04T14:38:46.301Z,100771.09
2022-10-04T14:41:12.662Z,100774.66
2022-10-04T14:43:38.999Z,100780.66
2022-10-04T14:46:06.260Z,100780.25
2022-10-04T14:48:32.608Z,100781.06
2022-10-04T14:50:58.945Z,100777.88
2022-10-04T14:53:25.321Z,100786.63
2022-10-04T14:55:51.636Z,100791.81
2022-10-04T14:58:17.966Z,100783.03
2022-10-04T15:00:44.345Z,100787.81
2022-10-04T15:03:11.539Z,100786.63
2022-10-04T15:05:39.010Z,100799.72
2022-10-04T15:08:05.373Z,100796.53
2022-10-04T15:10:38.115Z,100796.94
2022-10-04T15:13:10.948Z,100800.91
2022-10-04T15:15:38.674Z,100802.47
2022-10-04T15:18:05.057Z,100811.19
2022-10-04T15:20:31.357Z,100795.28
2022-10-04T15:22:57.680Z,100805.63
2022-10-04T15:25:23.976Z,100807.22
2022-10-04T15:27:50.333Z,100811.56
2022-10-04T15:30:16.678Z,100813.56
2022-10-04T15:32:43.015Z,100805.22
2022-10-04T15:35:09.348Z,100815.97
2022-10-04T15:37:36.083Z,100821.91
2022-10-04T15:40:02.435Z,100822.31
2022-10-04T15:42:28.767Z,100821.53
2022-10-04T15:44:55.076Z,100829.50
2022-10-04T15:47:21.403Z,100841.38
2022-10-04T15:49:47.831Z,100840.22
2022-10-04T15:52:15.092Z,100841.00
2022-10-04T15:54:41.596Z,100850.56
2022-10-04T15:57:07.950Z,100845.75
2022-10-04T15:59:34.227Z,100846.56
2022-10-04T16:02:00.607Z,100855.72
2022-10-04T16:04:26.938Z,100851.78
2022-10-04T16:06:53.290Z,100858.94
2022-10-04T16:09:19.623Z,100856.56
2022-10-04T16:11:45.943Z,100861.72
2022-10-04T16:14:12.319Z,100867.28
2022-10-04T16:16:38.666Z,100874.47
2022-10-04T16:19:05.036Z,100876.06
2022-10-04T16:21:31.364Z,100881.22
2022-10-04T16:23:57.717Z,100882.03
2022-10-04T16:26:24.043Z,100882.81
2022-10-04T16:28:50.481Z,100887.63
2022-10-04T16:31:20.196Z,100887.63
2022-10-04T16:33:46.845Z,100884.44
2022-10-04T16:36:13.147Z,100886.41
2022-10-04T16:38:39.465Z,100887.63
2022-10-04T16:41:05.804Z,100895.59
2022-10-04T16:43:32.149Z,100896.38
2022-10-04T16:45:58.551Z,100896.38
2022-10-04T16:48:24.999Z,100905.91
2022-10-04T16:50:51.467Z,100909.91
2022-10-04T16:53:17.815Z,100903.53
2022-10-04T16:55:44.200Z,100909.50
2022-10-04T16:58:10.577Z,100902.34
2022-10-04T17:00:36.929Z,100908.31
2022-10-04T17:03:03.398Z,100916.28
2022-10-04T17:05:29.775Z,100907.91
2022-10-04T17:07:56.129Z,100910.25
2022-10-04T17:10:22.465Z,100904.22
2022-10-04T17:12:48.786Z,100917.00
2022-10-04T17:15:15.136Z,100919.03
2022-10-04T17:17:42.330Z,100915.84
2022-10-04T17:20:08.665Z,100919.44
2022-10-04T17:22:35.002Z,100925.00
2022-10-04T17:25:01.371Z,100924.22
2022-10-04T17:27:27.722Z,100928.63
2022-10-04T17:29:54.135Z,100926.63
2022-10-04T17:32:20.590Z,100924.59
2022-10-04T17:34:47.204Z,100923.81
2022-10-04T17:37:13.582Z,100926.22
2022-10-04T17:39:39.967Z,100926.22
2022-10-04T17:42:06.323Z,100923.44
2022-10-04T17:44:32.640Z,100924.59
2022-10-04T17:46:58.977Z,100925.81
2022-10-04T17:49:25.490Z,100932.59
2022-10-04T17:51:51.873Z,100935.75
2022-10-04T17:54:18.268Z,100936.16
2022-10-04T17:56:45.201Z,100936.97
2022-10-04T17:59:12.181Z,100944.50
2022-10-04T18:01:38.687Z,100940.16
2022-10-04T18:04:05.412Z,100939.34
2022-10-04T18:06:32.052Z,100944.13
2022-10-04T18:08:58.928Z,100954.88
2022-10-04T18:11:25.472Z,100953.28
2022-10-04T18:13:52.218Z,100950.50
2022-10-04T18:16:18.948Z,100958.06
2022-10-04T18:18:46.946Z,100959.25
2022-10-04T18:21:14.834Z,100963.25
2022-10-04T18:23:41.747Z,100967.22
2022-10-04T18:26:08.319Z,100967.22
2022-10-04T18:28:36.115Z,100973.19
2022-10-04T18:31:04.913Z,100973.59
2022-10-04T18:33:31.762Z,100972.41
2022-10-04T18:35:59.508Z,100979.56
2022-10-04T18:38:26.445Z,100984.31
2022-10-04T18:40:53.510Z,100976.41
2022-10-04T18:43:20.337Z,100986.72
2022-10-04T18:45:47.246Z,100989.13
2022-10-04T18:48:14.353Z,100984.34
2022-10-04T18:50:41.381Z,100995.47
2022-10-04T18:53:08.353Z,100996.69
2022-10-04T18:55:35.320Z,100998.66
2022-10-04T18:58:02.431Z,101007.00
2022-10-04T19:00:30.108Z,101011.00
2022-10-04T19:02:57.319Z,101014.97
2022-10-04T19:05:26.252Z,101012.19
2022-10-04T19:07:53.416Z,101009.41
2022-10-04T19:10:22.700Z,101018.97
2022-10-04T19:12:50.552Z,101012.59
2022-10-04T19:15:17.630Z,101014.59
2022-10-04T19:17:45.610Z,101014.59
2022-10-04T19:20:18.923Z,101018.59
2022-10-04T19:22:47.397Z,101019.75
2022-10-04T19:25:14.227Z,101030.13
2022-10-04T19:27:41.038Z,101024.16
2022-10-04T19:30:08.090Z,101026.94
2022-10-04T19:32:35.998Z,101025.72
2022-10-04T19:35:03.037Z,101036.88
2022-10-04T19:37:32.464Z,101032.91
2022-10-04T19:40:01.408Z,101033.69
2022-10-04T19:42:28.027Z,101031.69
2022-10-04T19:44:55.003Z,101036.09
2022-10-04T19:47:22.026Z,101034.88
2022-10-04T19:49:48.529Z,101038.47
2022-10-04T19:52:15.768Z,101034.47
2022-10-04T19:54:42.572Z,101047.22
2022-10-04T19:57:10.389Z,101046.44
2022-10-04T19:59:36.832Z,101050.41
2022-10-04T20:02:03.717Z,101049.22
2022-10-04T20:04:31.727Z,101048.00
2022-10-04T20:06:58.769Z,101059.56
2022-10-04T20:59:58.461Z,101095.38
2022-10-04T21:02:25.379Z,101099.38
2022-10-04T21:04:51.889Z,101096.16
2022-10-04T21:07:18.610Z,101096.16
2022-10-04T21:09:45.537Z,101102.56
2022-10-04T21:12:11.972Z,101100.56
2022-10-04T21:14:38.784Z,101096.59
2022-10-04T21:17:05.276Z,101095.00
2022-10-04T21:19:31.738Z,101099.38
2022-10-04T21:21:58.475Z,101105.34
2022-10-04T21:24:25.262Z,101106.16
2022-10-04T21:26:51.834Z,101104.97
2022-10-04T21:29:18.275Z,101109.41
2022-10-04T21:31:44.666Z,101110.97
2022-10-04T21:34:20.290Z,101102.59
2022-10-04T21:36:58.227Z,101109.78
2022-10-04T21:39:24.596Z,101101.41
2022-10-04T21:41:50.924Z,101095.44
2022-10-04T21:44:18.134Z,101086.69
2022-10-04T21:46:44.713Z,101096.22
2022-10-04T21:49:11.185Z,101089.47
2022-10-04T21:51:37.527Z,101089.47
2022-10-04T21:54:03.952Z,101082.28
2022-10-04T21:56:30.305Z,101092.66
2022-10-04T21:58:56.640Z,101097.03
2022-10-04T22:01:23.016Z,101105.41
2022-10-04T22:03:49.376Z,101101.41
2022-10-04T22:06:15.878Z,101104.19
2022-10-04T22:08:42.196Z,101096.25
2022-10-04T22:11:09.429Z,101100.22
2022-10-04T22:13:35.775Z,101103.00
2022-10-04T22:16:02.138Z,101100.59
2022-10-04T22:18:28.487Z,101111.34
2022-10-04T22:20:54.814Z,101110.19
2022-10-04T22:23:21.149Z,101109.75
2022-10-04T22:25:47.477Z,101115.72
2022-10-04T22:28:13.840Z,101124.09
2022-10-04T22:30:40.340Z,101116.13
2022-10-04T22:33:06.718Z,101122.91
2022-10-04T22:35:33.060Z,101137.66
2022-10-04T22:37:59.419Z,101140.44
2022-10-04T22:40:25.989Z,101140.84
2022-10-04T22:42:52.432Z,101146.81
2022-10-04T22:45:19.693Z,101140.03
2022-10-04T22:47:46.015Z,101142.81
2022-10-04T22:50:13.210Z,101156.00
2022-10-04T22:52:39.686Z,101152.78
2022-10-04T22:55:06.068Z,101151.97
2022-10-04T22:57:32.412Z,101154.38
2022-10-04T22:59:58.731Z,101147.19
2022-10-04T23:02:25.100Z,101155.16
2022-10-04T23:04:51.576Z,101142.44
2022-10-04T23:07:17.988Z,101147.19
2022-10-04T23:09:44.326Z,101144.44
2022-10-04T23:12:10.658Z,101149.19
2022-10-04T23:14:36.973Z,101143.63
2022-10-04T23:17:03.382Z,101135.66
2022-10-04T23:19:30.751Z,101137.66
2022-10-04T23:21:57.218Z,101140.06
2022-10-04T23:24:24.434Z,101142.84
2022-10-04T23:26:51.794Z,101139.25
2022-10-04T23:29:19.092Z,101142.44
2022-10-04T23:31:49.050Z,101136.03
2022-10-04T23:34:16.265Z,101140.03
2022-10-04T23:36:44.767Z,101146.00
2022-10-04T23:39:14.127Z,101140.41
2022-10-04T23:41:40.504Z,101138.44
2022-10-04T23:44:06.832Z,101129.66
2022-10-04T23:46:34.079Z,101128.84
2022-10-04T23:49:00.383Z,101131.63
2022-10-04T23:51:26.708Z,101138.41
2022-10-04T23:53:53.030Z,101141.59
2022-10-04T23:56:19.366Z,101140.81
2022-10-04T23:58:45.696Z,101140.81
